Time;durP1;ratioP1;P1;durP2;ratioP2;P2;SDS_P1;SDS_P2;PMS_P1;PMS_P2;Temp;Humidity;BMP_temperature;BMP_pressure;BME280_temperature;BME280_humidity;BME280_pressure;Samples;Min_cycle;Max_cycle;Signal;HPM_P1;HPM_P2
2022/03/17 00:01:36;;;;;;;5.68;3.55;;;;;;;20.45;48.04;101857.41;5014684;28;20303;-57
2022/03/17 00:04:02;;;;;;;6.03;3.83;;;;;;;20.43;48.13;101850.56;5015917;28;20025;-57
2022/03/17 00:06:28;;;;;;;5.78;3.90;;;;;;;20.43;48.18;101847.91;5015607;28;20053;-57
2022/03/17 00:08:53;;;;;;;6.18;3.75;;;;;;;20.42;47.92;101852.34;5014778;28;20356;-58
2022/03/17 00:11:18;;;;;;;6.75;3.78;;;;;;;20.41;48.19;101849.81;5015652;28;20389;-58
2022/03/17 00:13:44;;;;;;;5.30;3.38;;;;;;;20.38;48.19;101842.97;5015342;28;20468;-59
2022/03/17 00:16:10;;;;;;;5.50;3.55;;;;;;;20.37;48.19;101833.31;5014806;28;20029;-58
2022/03/17 00:18:36;;;;;;;5.35;3.28;;;;;;;20.37;48.02;101840.44;5015360;28;20053;-56
2022/03/17 00:21:03;;;;;;;6.32;3.60;;;;;;;20.34;47.92;101844.16;5015499;28;20061;-58
2022/03/17 00:23:28;;;;;;;5.47;3.60;;;;;;;20.32;47.82;101835.47;5014805;28;20044;-57
2022/03/17 00:25:53;;;;;;;6.00;3.58;;;;;;;20.33;48.00;101836.31;5015216;28;20468;-57
2022/03/17 00:28:19;;;;;;;6.47;3.72;;;;;;;20.29;48.16;101843.66;5015424;28;20022;-57
2022/03/17 00:30:44;;;;;;;5.85;3.70;;;;;;;20.29;48.40;101838.34;5013756;28;20056;-57
2022/03/17 00:33:09;;;;;;;5.82;3.45;;;;;;;20.28;48.30;101840.16;5014834;28;20034;-58
2022/03/17 00:35:35;;;;;;;5.75;3.60;;;;;;;20.26;47.94;101834.13;5015156;28;20025;-57
2022/03/17 00:38:01;;;;;;;6.40;4.00;;;;;;;20.25;48.12;101845.69;5014527;28;20025;-58
2022/03/17 00:40:26;;;;;;;6.43;3.85;;;;;;;20.24;48.17;101837.88;5015367;28;20366;-58
2022/03/17 00:42:53;;;;;;;6.25;3.88;;;;;;;20.23;48.19;101844.94;5014910;28;20533;-58
2022/03/17 00:45:18;;;;;;;5.68;3.65;;;;;;;20.22;48.23;101845.06;5014175;28;20045;-57
2022/03/17 00:47:43;;;;;;;7.20;3.75;;;;;;;20.22;48.13;101847.69;5014943;28;20033;-57
2022/03/17 00:50:10;;;;;;;5.20;3.70;;;;;;;20.19;48.36;101840.84;5015131;28;20100;-57
2022/03/17 00:52:35;;;;;;;4.90;3.58;;;;;;;20.19;48.06;101854.09;5013560;28;20681;-58
2022/03/17 00:55:01;;;;;;;5.18;3.70;;;;;;;20.18;48.09;101857.69;5014557;28;20030;-58
2022/03/17 00:57:27;;;;;;;5.50;3.60;;;;;;;20.16;48.12;101859.59;5014569;28;20022;-58
2022/03/17 00:59:52;;;;;;;5.57;3.58;;;;;;;20.15;48.25;101862.38;5014038;28;20532;-58
2022/03/17 01:02:17;;;;;;;4.68;3.40;;;;;;;20.13;48.13;101857.19;5015149;28;20029;-58
2022/03/17 01:04:43;;;;;;;5.32;3.67;;;;;;;20.10;48.04;101850.31;5013596;28;20346;-58
2022/03/17 01:07:08;;;;;;;5.60;3.80;;;;;;;20.09;48.16;101850.41;5014521;28;20033;-58
2022/03/17 01:09:34;;;;;;;5.73;3.63;;;;;;;20.06;48.31;101851.50;5014166;28;20030;-58
2022/03/17 01:12:00;;;;;;;5.82;3.53;;;;;;;20.07;48.31;101857.63;5013460;28;20287;-58
2022/03/17 01:14:26;;;;;;;6.18;3.88;;;;;;;20.03;48.56;101857.03;5014255;28;20033;-58
2022/03/17 01:16:51;;;;;;;6.07;3.78;;;;;;;20.03;48.35;101856.19;5013972;28;20025;-58
2022/03/17 01:19:21;;;;;;;6.80;4.00;;;;;;;20.03;48.33;101854.38;5013961;28;20118;-58
2022/03/17 01:21:47;;;;;;;5.32;3.78;;;;;;;20.03;48.53;101848.25;5014011;28;20026;-58
2022/03/17 01:24:13;;;;;;;5.40;3.65;;;;;;;20.00;48.56;101851.13;5014360;28;20022;-58
2022/03/17 01:26:38;;;;;;;6.18;3.70;;;;;;;19.97;48.53;101846.06;5013300;28;20117;-58
2022/03/17 01:29:03;;;;;;;6.20;3.95;;;;;;;19.97;48.58;101851.34;5014022;28;20026;-58
2022/03/17 01:31:29;;;;;;;5.33;3.50;;;;;;;19.94;48.54;101847.94;5014054;28;20022;-58
2022/03/17 01:33:54;;;;;;;6.88;3.58;;;;;;;19.95;48.54;101851.44;5013280;28;20283;-58
2022/03/17 01:36:19;;;;;;;5.90;3.70;;;;;;;19.93;48.29;101850.69;5014082;28;20025;-58
2022/03/17 01:38:45;;;;;;;5.90;3.60;;;;;;;19.92;48.40;101841.94;5013760;28;20030;-58
2022/03/17 01:41:10;;;;;;;7.15;4.10;;;;;;;19.92;48.56;101855.16;5013316;28;20022;-58
2022/03/17 01:43:35;;;;;;;6.63;3.83;;;;;;;19.91;48.56;101847.31;5013103;28;20072;-58
2022/03/17 01:46:00;;;;;;;6.72;3.78;;;;;;;19.90;48.45;101853.56;5014074;28;20294;-58
2022/03/17 01:48:26;;;;;;;6.40;3.73;;;;;;;19.88;48.38;101850.19;5013173;28;20116;-57
2022/03/17 01:50:53;;;;;;;5.68;3.70;;;;;;;19.89;48.69;101854.53;5013554;28;20379;-58
2022/03/17 01:53:19;;;;;;;8.05;4.13;;;;;;;19.87;48.53;101845.88;5013829;28;20080;-58
2022/03/17 01:55:45;;;;;;;6.85;3.88;;;;;;;19.86;48.60;101852.13;5012792;28;20064;-56
2022/03/17 01:58:10;;;;;;;5.93;4.03;;;;;;;19.84;48.69;101852.22;5013667;28;20061;-58
2022/03/17 02:00:37;;;;;;;5.78;3.85;;;;;;;19.84;48.69;101846.94;5013322;28;20030;-57
2022/03/17 02:03:03;;;;;;;6.57;4.30;;;;;;;19.82;48.59;101851.50;5013006;28;20037;-57
2022/03/17 02:05:29;;;;;;;6.00;4.30;;;;;;;19.82;48.55;101842.69;5013518;28;20026;-57
2022/03/17 02:07:54;;;;;;;6.18;3.97;;;;;;;19.81;48.86;101841.03;5012660;28;20125;-57
2022/03/17 02:10:21;;;;;;;6.75;3.97;;;;;;;19.80;48.81;101844.63;5013568;28;20064;-57
2022/03/17 02:15:32;;;;;;;7.13;4.40;;;;;;;19.81;48.50;101859.56;5012680;28;20459;-57
2022/03/17 02:17:59;;;;;;;7.45;4.25;;;;;;;19.80;48.64;101866.63;5013091;28;20483;-57
2022/03/17 02:20:25;;;;;;;6.60;4.18;;;;;;;19.78;48.66;101862.41;5013386;28;20030;-58
2022/03/17 02:22:53;;;;;;;7.40;3.88;;;;;;;19.76;48.94;101854.59;5012238;28;20116;-58
2022/03/17 02:25:35;;;;;;;6.47;4.32;;;;;;;19.77;48.65;101869.47;5013165;28;20060;-58
2022/03/17 02:28:02;;;;;;;6.40;4.03;;;;;;;19.75;48.85;101868.72;5013176;28;20473;-58
2022/03/17 02:30:30;;;;;;;6.78;4.10;;;;;;;19.74;48.83;101869.66;5012531;28;20026;-58
2022/03/17 02:33:06;;;;;;;7.10;4.25;;;;;;;19.74;48.83;101874.97;5012654;28;20546;-58
2022/03/17 02:35:33;;;;;;;5.70;3.72;;;;;;;19.73;48.93;101876.78;5013020;28;20488;-57
2022/03/17 02:38:01;;;;;;;6.95;4.40;;;;;;;19.73;48.82;101873.28;5012667;28;20029;-56
2022/03/17 02:40:27;;;;;;;5.78;4.03;;;;;;;19.72;48.86;101885.66;5013376;28;20037;-57
2022/03/17 02:42:53;;;;;;;6.28;4.28;;;;;;;19.74;49.08;101896.13;5012940;28;20026;-57
2022/03/17 02:45:19;;;;;;;6.38;4.10;;;;;;;19.72;48.87;101887.47;5012383;28;20405;-58
2022/03/17 02:47:45;;;;;;;7.00;4.10;;;;;;;19.72;48.96;101893.59;5012808;28;20050;-58
2022/03/17 02:50:11;;;;;;;6.60;4.50;;;;;;;19.72;49.13;101895.41;5012296;28;20029;-58
2022/03/17 02:52:37;;;;;;;6.55;4.25;;;;;;;19.70;49.13;101903.44;5012874;28;20053;-58
2022/03/17 02:55:03;;;;;;;7.90;5.32;;;;;;;19.69;49.13;101899.13;5014202;28;20054;-58
2022/03/17 02:57:28;;;;;;;7.22;5.10;;;;;;;19.70;48.94;101914.00;5016174;28;20032;-58
2022/03/17 02:59:54;;;;;;;7.20;5.30;;;;;;;19.69;49.26;101919.41;5016726;28;20022;-58
2022/03/17 03:02:20;;;;;;;6.88;4.80;;;;;;;19.69;49.09;101928.22;5017130;28;20093;-58
2022/03/17 03:04:46;;;;;;;7.53;5.15;;;;;;;19.70;49.06;101931.69;5015903;28;20491;-58
2022/03/17 03:07:11;;;;;;;8.27;5.03;;;;;;;19.68;49.37;101936.25;5016702;28;20022;-58
2022/03/17 03:09:37;;;;;;;7.07;4.72;;;;;;;19.69;49.30;101946.72;5016765;28;20018;-58
2022/03/17 03:12:02;;;;;;;6.90;4.50;;;;;;;19.69;49.17;101948.50;5015994;28;20065;-57
2022/03/17 03:14:29;;;;;;;6.43;4.38;;;;;;;19.68;49.43;101963.53;5016746;28;20469;-57
2022/03/17 03:16:54;;;;;;;7.28;4.32;;;;;;;19.68;49.43;101966.19;5016570;28;20026;-58
2022/03/17 03:19:20;;;;;;;6.00;4.35;;;;;;;19.68;49.34;101979.41;5015686;28;20033;-58
2022/03/17 03:21:45;;;;;;;7.75;4.43;;;;;;;19.64;49.48;101975.28;5016177;28;20079;-58
2022/03/17 03:24:12;;;;;;;6.00;4.18;;;;;;;19.65;49.38;101984.91;5016651;28;20061;-56
2022/03/17 03:26:42;;;;;;;6.93;3.85;;;;;;;19.64;49.47;101985.84;5015560;28;20032;-58
2022/03/17 03:31:40;;;;;;;6.40;3.80;;;;;;;19.62;49.43;102006.28;5016305;28;20121;-58
2022/03/17 03:34:05;;;;;;;5.78;3.90;;;;;;;19.61;49.64;102011.66;5015419;28;20116;-57
2022/03/17 03:39:14;;;;;;;4.93;3.25;;;;;;;19.60;49.64;102016.13;5015919;28;20266;-58
2022/03/17 03:41:39;;;;;;;6.37;3.90;;;;;;;19.58;49.59;102018.88;5015907;28;20038;-58
2022/03/17 03:44:05;;;;;;;5.00;3.33;;;;;;;19.60;49.42;102034.63;5016098;28;20267;-58
2022/03/17 03:46:30;;;;;;;5.10;3.33;;;;;;;19.59;49.42;102035.56;5015171;28;20022;-58
2022/03/17 03:48:55;;;;;;;6.22;3.70;;;;;;;19.58;49.37;102044.44;5015829;28;20108;-58
2022/03/17 03:51:20;;;;;;;5.13;3.53;;;;;;;19.57;49.42;102053.34;5016111;28;20022;-58
2022/03/17 03:56:31;;;;;;;5.50;3.25;;;;;;;19.55;49.26;102073.75;5016246;28;20781;-57
2022/03/17 03:58:57;;;;;;;6.00;3.25;;;;;;;19.52;49.38;102076.63;5015625;28;20079;-58
2022/03/17 04:01:25;;;;;;;5.60;3.50;;;;;;;19.52;49.48;102093.31;5014983;28;20109;-58
2022/03/17 04:03:52;;;;;;;5.20;3.08;;;;;;;19.50;49.43;102091.72;5015452;28;20153;-58
2022/03/17 04:06:17;;;;;;;5.82;3.53;;;;;;;19.50;49.23;102097.00;5015708;28;20049;-58
2022/03/17 04:08:42;;;;;;;7.43;3.47;;;;;;;19.48;49.30;102112.97;5015026;28;20373;-58
2022/03/17 04:11:07;;;;;;;6.90;3.80;;;;;;;19.47;49.40;102116.59;5015603;28;20045;-58
2022/03/17 04:13:32;;;;;;;6.17;3.40;;;;;;;19.46;49.20;102125.47;5015426;28;20287;-58
2022/03/17 04:15:58;;;;;;;5.63;3.50;;;;;;;19.46;49.13;102135.19;5015109;28;20268;-57
2022/03/17 04:18:24;;;;;;;5.07;3.22;;;;;;;19.43;49.20;102141.53;5015891;28;20046;-58
2022/03/17 04:20:49;;;;;;;5.30;3.30;;;;;;;19.43;49.64;102156.53;5015313;28;20415;-57
2022/03/17 04:23:14;;;;;;;5.50;3.50;;;;;;;19.40;49.21;102150.50;5014898;28;20321;-57
2022/03/17 04:25:40;;;;;;;5.70;3.50;;;;;;;19.41;49.08;102164.56;5014998;28;20322;-57
2022/03/17 04:28:06;;;;;;;5.22;3.20;;;;;;;19.40;48.87;102182.22;5015380;28;20283;-57
2022/03/17 04:30:33;;;;;;;5.05;3.28;;;;;;;19.37;49.00;102185.06;5014638;28;20117;-57
2022/03/17 04:32:58;;;;;;;5.32;2.78;;;;;;;19.37;49.24;102187.69;5015173;28;20018;-57
2022/03/17 04:35:25;;;;;;;6.50;2.92;;;;;;;19.37;49.20;102197.44;5015276;28;20053;-57
2022/03/17 04:37:50;;;;;;;4.82;3.00;;;;;;;19.34;49.19;102201.16;5014106;28;20032;-57
2022/03/17 04:40:15;;;;;;;5.20;3.15;;;;;;;19.36;49.18;102214.28;5015109;28;20481;-56
2022/03/17 04:42:41;;;;;;;5.55;2.97;;;;;;;19.35;48.99;102215.22;5014014;28;20030;-57
2022/03/17 04:45:07;;;;;;;5.10;2.88;;;;;;;19.36;49.11;102230.97;5014749;28;20025;-56
2022/03/17 04:47:32;;;;;;;5.32;3.10;;;;;;;19.35;49.11;102234.53;5014911;28;20026;-57
2022/03/17 04:49:57;;;;;;;4.82;2.78;;;;;;;19.33;48.88;102231.16;5013928;28;20488;-58
2022/03/17 04:55:12;;;;;;;5.28;2.80;;;;;;;19.31;48.93;102242.78;5013490;28;20185;-58
2022/03/17 04:57:37;;;;;;;4.85;2.30;;;;;;;19.29;48.96;102248.16;5013410;28;20380;-58
2022/03/17 05:00:03;;;;;;;5.32;2.80;;;;;;;19.29;48.70;102257.88;5014780;28;20114;-58
2022/03/17 05:02:28;;;;;;;5.05;2.53;;;;;;;19.26;48.90;102273.94;5014532;28;20088;-58
2022/03/17 05:04:54;;;;;;;5.40;2.88;;;;;;;19.26;48.70;102282.72;5013422;28;20022;-58
2022/03/17 05:07:19;;;;;;;5.10;2.47;;;;;;;19.24;48.48;102287.25;5014494;28;20113;-58
2022/03/17 05:09:45;;;;;;;5.30;2.47;;;;;;;19.24;48.71;102295.19;5013979;28;20556;-58
2022/03/17 05:12:11;;;;;;;3.92;2.15;;;;;;;19.24;48.47;102299.63;5013372;28;20389;-58
2022/03/17 05:14:36;;;;;;;6.05;2.42;;;;;;;19.25;48.62;102314.53;5013885;28;20481;-58
2022/03/17 05:17:02;;;;;;;5.10;2.38;;;;;;;19.25;48.98;102327.75;5013931;28;20026;-57
2022/03/17 05:19:27;;;;;;;5.15;2.20;;;;;;;19.25;48.69;102333.91;5013389;28;20354;-58
2022/03/17 05:21:52;;;;;;;4.38;1.88;;;;;;;19.29;48.98;102345.13;5013906;28;20084;-58
2022/03/17 05:24:18;;;;;;;5.75;1.95;;;;;;;19.31;48.71;102344.09;5013992;28;20380;-58
2022/03/17 05:26:45;;;;;;;5.13;1.90;;;;;;;19.37;48.51;102351.59;5012934;28;20066;-58
2022/03/17 05:29:12;;;;;;;5.72;1.95;;;;;;;19.40;48.00;102356.69;5013754;28;20275;-58
2022/03/17 05:31:37;;;;;;;7.57;1.83;;;;;;;19.45;48.23;102358.22;5013763;28;20485;-57
2022/03/17 05:34:03;;;;;;;5.53;2.17;;;;;;;19.48;47.98;102366.78;5013277;28;20101;-57
2022/03/17 05:36:28;;;;;;;5.72;2.10;;;;;;;19.50;48.12;102364.06;5014027;28;20373;-58
2022/03/17 05:38:53;;;;;;;4.85;1.80;;;;;;;19.52;48.06;102376.25;5012715;28;20118;-58
2022/03/17 05:41:18;;;;;;;4.50;1.75;;;;;;;19.53;48.10;102380.56;5013543;28;20600;-58
2022/03/17 05:43:44;;;;;;;3.83;1.40;;;;;;;19.55;47.98;102391.06;5013636;28;20030;-58
2022/03/17 05:46:09;;;;;;;3.70;1.60;;;;;;;19.54;48.05;102402.59;5013105;28;20029;-57
2022/03/17 05:48:34;;;;;;;4.82;1.60;;;;;;;19.58;48.01;102412.00;5013457;28;20029;-57
2022/03/17 05:51:00;;;;;;;3.75;1.27;;;;;;;19.57;47.93;102416.47;5013841;28;20026;-58
2022/03/17 05:53:25;;;;;;;4.07;1.60;;;;;;;19.58;48.08;102412.00;5012718;28;20034;-58
2022/03/17 05:55:50;;;;;;;6.43;1.60;;;;;;;19.58;47.93;102426.09;5013127;28;20026;-58
2022/03/17 05:58:16;;;;;;;3.50;1.42;;;;;;;19.58;47.81;102431.41;5013690;28;20321;-58
2022/03/17 06:00:41;;;;;;;3.88;1.45;;;;;;;19.60;47.61;102441.00;5012397;28;20365;-58
2022/03/17 06:03:06;;;;;;;4.30;1.50;;;;;;;19.59;47.66;102442.81;5013560;28;20030;-58
2022/03/17 06:05:31;;;;;;;3.45;1.40;;;;;;;19.57;47.29;102453.50;5013475;28;20701;-58
2022/03/17 06:08:01;;;;;;;3.70;1.55;;;;;;;19.56;47.53;102453.59;5012239;28;20080;-58
2022/03/17 06:10:32;;;;;;;3.13;1.40;;;;;;;19.55;47.35;102458.03;5013337;28;20044;-58
2022/03/17 06:12:58;;;;;;;3.33;1.20;;;;;;;19.55;47.23;102470.38;5012747;28;20414;-58
2022/03/17 06:15:24;;;;;;;4.35;1.50;;;;;;;19.54;47.62;102474.84;5012561;28;20033;-58
2022/03/17 06:17:52;;;;;;;3.28;1.40;;;;;;;19.58;47.95;102476.34;5013070;28;20022;-58
2022/03/17 06:20:20;;;;;;;4.72;1.50;;;;;;;19.64;48.29;102484.84;5013050;28;20022;-56
2022/03/17 06:22:48;;;;;;;4.60;1.70;;;;;;;19.68;48.01;102496.94;5012075;28;20036;-57
2022/03/17 06:25:15;;;;;;;4.53;1.52;;;;;;;19.72;48.49;102498.44;5013205;28;20059;-57
2022/03/17 06:27:43;;;;;;;3.38;1.15;;;;;;;19.72;49.15;102504.56;5012945;28;20068;-57
2022/03/17 06:30:15;;;;;;;3.85;2.05;;;;;;;19.77;49.01;102514.06;5011643;28;20353;-57
2022/03/17 06:32:40;;;;;;;3.67;1.30;;;;;;;19.80;49.13;102512.06;5012676;28;20481;-57
2022/03/17 06:35:17;;;;;;;3.63;1.17;;;;;;;19.83;48.70;102518.97;5012273;28;20028;-57
2022/03/17 06:37:42;;;;;;;3.00;1.27;;;;;;;19.84;48.75;102521.53;5012941;28;20096;-57
2022/03/17 06:40:08;;;;;;;3.45;1.25;;;;;;;19.87;48.81;102525.78;5013063;28;20524;-57
2022/03/17 06:42:34;;;;;;;2.50;1.10;;;;;;;19.86;48.85;102538.16;5011717;28;20116;-57
2022/03/17 06:45:00;;;;;;;3.03;1.25;;;;;;;19.90;48.93;102541.44;5012907;28;20030;-57
2022/03/17 06:47:26;;;;;;;3.20;1.20;;;;;;;19.92;48.80;102551.00;5012902;28;20026;-57
2022/03/17 06:49:51;;;;;;;2.58;1.15;;;;;;;19.96;48.45;102559.59;5011685;28;20022;-57
2022/03/17 06:52:16;;;;;;;3.05;1.25;;;;;;;19.98;46.60;102563.00;5013034;28;20410;-58
2022/03/17 06:54:42;;;;;;;5.05;1.65;;;;;;;20.00;47.62;102571.69;5012452;28;20029;-58
2022/03/17 06:57:07;;;;;;;4.18;1.30;;;;;;;20.03;47.78;102582.09;5012065;28;20026;-57
2022/03/17 06:59:35;;;;;;;3.72;1.33;;;;;;;20.02;47.50;102568.97;5012756;28;20026;-56
2022/03/17 07:02:00;;;;;;;3.70;1.23;;;;;;;20.02;47.65;102587.47;5012793;28;20442;-57
2022/03/17 07:04:26;;;;;;;3.15;1.23;;;;;;;20.03;47.94;102590.03;5011771;28;20517;-58
2022/03/17 07:06:51;;;;;;;2.85;1.05;;;;;;;20.05;48.00;102598.72;5012604;28;20120;-58
2022/03/17 07:09:16;;;;;;;3.60;1.10;;;;;;;20.04;45.58;102602.31;5012721;28;20022;-58
2022/03/17 07:11:44;;;;;;;6.30;2.03;;;;;;;20.00;44.13;102607.91;5011483;28;20125;-59
2022/03/17 07:14:09;;;;;;;5.22;1.20;;;;;;;20.00;45.83;102598.16;5012642;28;20459;-60
2022/03/17 07:16:34;;;;;;;5.97;1.20;;;;;;;20.03;46.97;102607.72;5012340;28;20541;-59
2022/03/17 07:19:00;;;;;;;2.83;0.90;;;;;;;20.03;47.48;102611.22;5011801;28;20552;-59
2022/03/17 07:21:25;;;;;;;3.57;1.00;;;;;;;20.03;47.20;102618.31;5012728;28;20033;-59
2022/03/17 07:23:50;;;;;;;5.65;1.13;;;;;;;20.07;47.43;102623.28;5012519;28;20275;-60
2022/03/17 07:26:15;;;;;;;4.30;1.13;;;;;;;20.10;47.58;102623.09;5011966;28;20381;-58
2022/03/17 07:28:41;;;;;;;3.42;1.42;;;;;;;20.14;47.57;102629.06;5012323;28;20032;-59
2022/03/17 07:31:06;;;;;;;5.63;1.02;;;;;;;20.16;47.44;102643.06;5012765;28;20055;-58
2022/03/17 07:33:34;;;;;;;3.30;1.10;;;;;;;20.15;47.64;102651.94;5011747;28;20119;-58
2022/03/17 07:35:59;;;;;;;3.38;1.17;;;;;;;20.13;47.72;102661.78;5012726;28;20037;-57
2022/03/17 07:38:24;;;;;;;5.97;1.05;;;;;;;20.11;48.57;102668.97;5012097;28;20026;-59
2022/03/17 07:40:50;;;;;;;4.07;1.20;;;;;;;20.08;48.99;102671.81;5013482;28;20323;-58
2022/03/17 07:43:15;;;;;;;4.38;1.30;;;;;;;20.05;48.90;102674.63;5016369;28;20080;-58
2022/03/17 07:45:40;;;;;;;5.82;1.40;;;;;;;20.07;49.46;102676.22;5015287;28;20526;-58
2022/03/17 07:48:06;;;;;;;6.40;1.65;;;;;;;20.10;49.61;102683.97;5016127;28;20029;-58
2022/03/17 07:50:34;;;;;;;6.20;1.33;;;;;;;20.13;49.44;102688.25;5016193;28;20033;-59
2022/03/17 07:52:59;;;;;;;4.30;1.52;;;;;;;20.16;49.48;102684.56;5015369;28;20072;-59
2022/03/17 07:55:25;;;;;;;5.15;1.60;;;;;;;20.20;49.58;102691.38;5016021;28;20416;-60
2022/03/17 07:57:51;;;;;;;4.07;1.30;;;;;;;20.26;49.44;102693.63;5015909;28;20030;-59
2022/03/17 08:00:17;;;;;;;9.20;1.80;;;;;;;20.33;49.17;102699.41;5015238;28;20046;-59
2022/03/17 08:02:43;;;;;;;4.57;1.30;;;;;;;20.37;49.02;102699.13;5015728;28;20054;-59
2022/03/17 08:05:14;;;;;;;6.72;1.50;;;;;;;20.43;48.85;102713.78;5016142;28;20473;-59
2022/03/17 08:07:40;;;;;;;5.38;1.35;;;;;;;20.46;48.82;102714.44;5015083;28;20030;-59
2022/03/17 08:10:06;;;;;;;6.00;1.60;;;;;;;20.48;48.82;102724.94;5016029;28;20026;-58
2022/03/17 08:12:31;;;;;;;7.05;2.20;;;;;;;20.50;48.74;102717.75;5015245;28;20033;-59
2022/03/17 08:14:58;;;;;;;4.10;1.40;;;;;;;20.55;48.64;102728.91;5014724;28;20029;-60
2022/03/17 08:17:24;;;;;;;5.82;1.95;;;;;;;20.56;48.76;102725.31;5015418;28;20036;-60
2022/03/17 08:19:53;;;;;;;6.32;1.73;;;;;;;20.58;48.59;102731.34;5015153;28;20018;-60
2022/03/17 08:22:18;;;;;;;5.35;1.05;;;;;;;20.60;48.32;102737.44;5014805;28;20026;-60
2022/03/17 08:24:43;;;;;;;9.10;1.48;;;;;;;20.61;48.44;102747.06;5015017;28;20053;-59
2022/03/17 08:27:09;;;;;;;9.03;1.57;;;;;;;20.61;48.75;102752.38;5015415;28;20026;-59
2022/03/17 08:29:34;;;;;;;5.40;1.30;;;;;;;20.64;48.44;102764.63;5014283;28;20278;-59
2022/03/17 08:32:00;;;;;;;4.80;1.63;;;;;;;20.65;48.40;102764.53;5015178;28;20022;-59
2022/03/17 08:34:26;;;;;;;6.93;1.10;;;;;;;20.67;48.22;102774.19;5015272;28;20346;-59
2022/03/17 08:36:54;;;;;;;4.53;1.10;;;;;;;20.69;48.22;102780.22;5014266;28;20469;-58
2022/03/17 08:39:19;;;;;;;6.55;1.27;;;;;;;20.69;48.29;102790.81;5015268;28;20030;-62
2022/03/17 08:41:45;;;;;;;4.22;1.48;;;;;;;20.68;48.28;102791.75;5013998;28;20021;-59
2022/03/17 08:44:10;;;;;;;7.10;1.10;;;;;;;20.69;48.33;102801.41;5015082;28;20034;-58
2022/03/17 08:49:27;;;;;;;4.07;1.05;;;;;;;20.71;48.40;102803.03;5013411;28;20495;-58
2022/03/17 08:51:59;;;;;;;3.72;1.05;;;;;;;20.72;48.51;102809.19;5014204;28;20026;-59
2022/03/17 08:54:28;;;;;;;5.93;1.10;;;;;;;20.68;48.57;102810.31;5014585;28;20021;-62
2022/03/17 08:56:59;;;;;;;6.10;1.55;;;;;;;20.67;48.62;102817.41;5014945;28;20492;-62
2022/03/17 08:59:30;;;;;;;6.28;1.10;;;;;;;20.73;48.98;102819.69;5015523;28;20029;-61
2022/03/17 09:01:58;;;;;;;6.78;1.58;;;;;;;20.83;48.64;102825.28;5014978;28;20104;-62
2022/03/17 09:04:24;;;;;;;5.85;1.48;;;;;;;20.91;48.13;102820.34;5014225;28;20104;-60
2022/03/17 09:06:50;;;;;;;6.75;1.13;;;;;;;20.97;47.63;102832.38;5014376;28;20123;-61
2022/03/17 09:09:15;;;;;;;6.63;1.38;;;;;;;21.01;47.88;102826.78;5014578;28;20030;-60
2022/03/17 09:11:40;;;;;;;5.95;1.20;;;;;;;21.09;47.42;102839.53;5013292;28;20050;-59
2022/03/17 09:14:07;;;;;;;5.20;1.30;;;;;;;21.14;47.54;102842.78;5014716;28;20038;-61
2022/03/17 09:16:33;;;;;;;7.35;1.75;;;;;;;21.19;47.55;102845.97;5014556;28;20497;-61
2022/03/17 09:18:58;;;;;;;7.20;1.38;;;;;;;21.20;47.16;102854.78;5013649;28;20033;-60
2022/03/17 09:21:25;;;;;;;4.68;0.98;;;;;;;21.23;47.48;102853.75;5014535;28;20025;-62
2022/03/17 09:23:53;;;;;;;5.03;1.23;;;;;;;21.26;47.61;102861.50;5013814;28;20041;-61
2022/03/17 09:26:22;;;;;;;5.72;1.25;;;;;;;21.25;46.88;102859.78;5014095;28;20084;-61
2022/03/17 09:28:47;;;;;;;8.65;1.30;;;;;;;21.27;46.90;102863.19;5014196;28;20022;-59
2022/03/17 09:31:13;;;;;;;4.97;1.20;;;;;;;21.29;46.97;102866.63;5013561;28;20218;-61
2022/03/17 09:33:41;;;;;;;5.60;1.20;;;;;;;21.30;47.11;102861.22;5012776;28;20042;-61
2022/03/17 09:36:07;;;;;;;3.47;0.95;;;;;;;21.31;47.28;102870.84;5014154;28;20029;-63
2022/03/17 09:38:32;;;;;;;5.60;1.27;;;;;;;21.35;47.23;102877.69;5013263;28;20072;-61
2022/03/17 09:40:58;;;;;;;3.55;1.20;;;;;;;21.38;46.75;102887.25;5013859;28;20347;-61
2022/03/17 09:43:31;;;;;;;4.10;1.20;;;;;;;21.37;47.01;102893.50;5014305;28;20052;-62
2022/03/17 09:45:58;;;;;;;4.72;1.50;;;;;;;21.34;46.93;102875.13;5012907;28;20068;-61
2022/03/17 09:48:26;;;;;;;6.25;1.20;;;;;;;21.30;46.75;102885.09;5013798;28;20022;-60
2022/03/17 09:50:56;;;;;;;3.90;0.88;;;;;;;21.29;46.78;102882.53;5013380;28;20464;-58
2022/03/17 09:53:25;;;;;;;5.93;1.00;;;;;;;21.25;46.78;102891.59;5013080;28;20447;-58
2022/03/17 09:55:51;;;;;;;6.70;1.33;;;;;;;21.23;46.74;102902.31;5013446;28;20022;-58
2022/03/17 09:58:17;;;;;;;4.38;1.10;;;;;;;21.21;46.85;102901.56;5013810;28;20102;-58
2022/03/17 10:00:48;;;;;;;6.28;1.20;;;;;;;21.18;46.80;102913.19;5012568;28;20037;-59
2022/03/17 10:03:25;;;;;;;4.00;1.13;;;;;;;21.14;46.96;102914.34;5013392;28;20022;-57
2022/03/17 10:05:50;;;;;;;5.32;1.00;;;;;;;21.13;46.93;102930.34;5013022;28;20032;-59
2022/03/17 10:08:18;;;;;;;5.53;1.08;;;;;;;21.11;47.29;102941.06;5012895;28;20029;-59
2022/03/17 10:10:44;;;;;;;4.50;1.00;;;;;;;21.08;47.16;102937.72;5013282;28;20117;-59
2022/03/17 10:13:16;;;;;;;4.55;1.05;;;;;;;21.10;47.02;102941.16;5012384;28;20041;-59
2022/03/17 10:15:43;;;;;;;4.13;1.30;;;;;;;21.10;46.89;102943.78;5013000;28;20452;-59
2022/03/17 10:18:26;;;;;;;6.00;1.20;;;;;;;21.08;46.95;102945.66;5013177;28;20029;-59
2022/03/17 10:21:11;;;;;;;4.18;0.90;;;;;;;21.06;47.03;102947.56;5012439;28;20056;-60
2022/03/17 10:24:00;;;;;;;4.20;0.98;;;;;;;21.06;46.97;102963.47;5013108;28;20156;-60
2022/03/17 10:26:32;;;;;;;3.88;0.80;;;;;;;21.05;47.10;102967.94;5013195;28;20477;-60
2022/03/17 10:29:22;;;;;;;5.05;1.10;;;;;;;21.02;47.17;102968.97;5012278;28;20025;-60
2022/03/17 10:31:59;;;;;;;2.13;0.80;;;;;;;21.02;47.48;102971.59;5013125;28;20028;-60
2022/03/17 10:34:29;;;;;;;3.08;1.10;;;;;;;21.00;47.41;102977.97;5012294;28;20033;-62
2022/03/17 10:37:30;;;;;;;3.53;1.00;;;;;;;21.02;45.93;102981.38;5012854;28;20101;-59
2022/03/17 10:39:57;;;;;;;5.22;0.90;;;;;;;21.08;46.41;102988.97;5022055;28;20034;-59
2022/03/17 10:42:26;;;;;;;3.78;1.00;;;;;;;21.15;46.24;102984.97;5012403;28;20036;-59
2022/03/17 10:45:01;;;;;;;3.25;1.10;;;;;;;21.18;46.46;102990.09;5012818;28;20040;-59
2022/03/17 10:47:31;;;;;;;4.90;1.02;;;;;;;21.23;46.15;102991.63;5013142;28;20534;-60
2022/03/17 10:50:20;;;;;;;3.60;0.90;;;;;;;21.20;46.00;102997.97;5011616;28;20071;-60
2022/03/17 10:52:52;;;;;;;7.25;1.33;;;;;;;21.07;42.77;103010.25;5012436;28;20042;-59
2022/03/17 10:55:24;;;;;;;3.35;0.90;;;;;;;20.99;44.68;103011.56;5012535;28;20113;-60
2022/03/17 10:57:50;;;;;;;4.85;1.30;;;;;;;20.96;45.60;103013.53;5012405;28;20026;-58
2022/03/17 11:00:24;;;;;;;5.38;1.00;;;;;;;20.94;45.48;103024.25;5012716;28;20060;-59
2022/03/17 11:02:53;;;;;;;4.97;1.05;;;;;;;20.94;45.87;103034.84;5011862;28;20037;-59
2022/03/17 11:05:18;;;;;;;3.47;1.02;;;;;;;20.92;45.39;103030.56;5012721;28;20420;-59
2022/03/17 11:07:48;;;;;;;4.38;0.82;;;;;;;20.93;45.77;103038.41;5012514;28;20022;-58
2022/03/17 11:10:15;;;;;;;4.28;1.15;;;;;;;20.92;45.83;103044.69;5011813;28;20050;-58
2022/03/17 11:12:43;;;;;;;4.60;1.08;;;;;;;20.90;45.86;103045.72;5012135;28;20046;-57
2022/03/17 11:15:08;;;;;;;4.00;0.90;;;;;;;20.91;45.73;103042.97;5012733;28;20101;-58
2022/03/17 11:17:58;;;;;;;6.15;1.10;;;;;;;20.91;45.31;103048.28;5015802;28;20160;-58
2022/03/17 11:20:23;;;;;;;3.33;0.90;;;;;;;20.92;45.64;103057.06;5016377;28;20018;-58
2022/03/17 11:23:16;;;;;;;4.80;1.27;;;;;;;20.93;45.84;103059.63;5015998;28;20141;-58
2022/03/17 11:25:56;;;;;;;4.75;1.15;;;;;;;20.97;45.75;103058.50;5015532;28;20058;-59
2022/03/17 11:28:36;;;;;;;3.50;1.08;;;;;;;20.96;45.78;103061.25;5016461;28;20033;-59
2022/03/17 11:31:05;;;;;;;4.72;1.00;;;;;;;20.95;44.71;103062.19;5015567;28;20029;-59
2022/03/17 11:33:39;;;;;;;3.88;1.05;;;;;;;20.96;45.70;103064.75;5016279;28;20030;-58
2022/03/17 11:36:07;;;;;;;7.30;1.33;;;;;;;20.97;45.88;103063.81;5016292;28;20099;-59
2022/03/17 11:38:32;;;;;;;2.88;0.85;;;;;;;20.97;46.06;103074.41;5015492;28;20083;-59
2022/03/17 11:41:20;;;;;;;4.30;1.00;;;;;;;20.98;46.29;103078.78;5015849;28;20014;-59